createdAt,value
2017-01-04T00:00:05.258Z,21
2017-01-04T00:02:05.540Z,21
2017-01-04T00:04:05.264Z,21
2017-01-04T00:06:05.351Z,21
2017-01-04T00:08:07.986Z,21
2017-01-04T00:10:05.239Z,21
2017-01-04T00:12:05.088Z,21
2017-01-04T00:14:04.990Z,21
2017-01-04T00:16:07.399Z,21
2017-01-04T00:18:05.325Z,21
2017-01-04T00:20:05.196Z,21
2017-01-04T00:22:05.280Z,21
2017-01-04T00:24:05.048Z,21
2017-01-04T00:26:05.057Z,21
2017-01-04T00:28:07.306Z,21
2017-01-04T00:30:05.034Z,20.9
2017-01-04T00:32:05.518Z,21
2017-01-04T00:34:05.270Z,21
2017-01-04T00:36:05.637Z,21
2017-01-04T00:38:05.420Z,21
2017-01-04T00:40:07.240Z,21
2017-01-04T00:42:04.945Z,20.9
2017-01-04T00:44:07.697Z,20.9
2017-01-04T00:46:05.400Z,20.9
2017-01-04T00:48:05.198Z,20.9
2017-01-04T00:50:04.941Z,20.9
2017-01-04T00:52:04.660Z,20.9
2017-01-04T00:54:05.376Z,20.9
2017-01-04T00:56:05.397Z,20.9
2017-01-04T00:58:06.110Z,20.9
2017-01-04T01:00:04.781Z,20.9
2017-01-04T01:02:05.831Z,20.9
2017-01-04T01:04:05.111Z,20.8
2017-01-04T01:06:04.823Z,20.8
2017-01-04T01:08:05.956Z,20.8
2017-01-04T01:10:04.864Z,20.8
2017-01-04T01:12:05.146Z,20.8
2017-01-04T01:14:05.833Z,20.8
2017-01-04T01:16:04.591Z,20.7
2017-01-04T01:18:05.489Z,20.7
2017-01-04T01:20:05.627Z,20.7
2017-01-04T01:22:05.339Z,20.7
2017-01-04T01:24:04.755Z,20.7
2017-01-04T01:26:05.656Z,20.7
2017-01-04T01:28:05.406Z,20.7
2017-01-04T01:30:05.173Z,20.7
2017-01-04T01:32:04.895Z,20.7
2017-01-04T01:34:05.611Z,20.6
2017-01-04T01:36:07.955Z,20.6
2017-01-04T01:38:05.600Z,20.6
2017-01-04T01:40:07.860Z,20.6
2017-01-04T01:42:05.166Z,20.6
2017-01-04T01:44:05.010Z,20.6
2017-01-04T01:46:04.724Z,20.6
2017-01-04T01:48:04.961Z,20.6
2017-01-04T01:50:04.662Z,20.5
2017-01-04T01:52:05.387Z,20.6
2017-01-04T01:54:05.137Z,20.5
2017-01-04T01:56:04.900Z,20.5
2017-01-04T01:58:05.586Z,20.5
2017-01-04T02:00:05.332Z,20.5
2017-01-04T02:02:05.298Z,20.5
2017-01-04T02:04:05.011Z,20.5
2017-01-04T02:06:05.215Z,20.5
2017-01-04T02:08:05.133Z,20.5
2017-01-04T02:10:04.974Z,20.5
2017-01-04T02:12:04.689Z,20.5
2017-01-04T02:14:05.614Z,20.5
2017-01-04T02:16:05.338Z,20.5
2017-01-04T02:18:05.210Z,20.5
2017-01-04T02:20:05.353Z,20.5
2017-01-04T02:22:05.081Z,20.5
2017-01-04T02:24:09.866Z,20.5
2017-01-04T02:26:04.715Z,20.5
2017-01-04T02:28:05.440Z,20.5
2017-01-04T02:30:05.516Z,20.5
2017-01-04T02:32:05.544Z,20.5
2017-01-04T02:34:09.831Z,20.4
2017-01-04T02:36:05.518Z,20.4
2017-01-04T02:38:05.417Z,20.4
2017-01-04T02:40:10.157Z,20.4
2017-01-04T02:42:04.888Z,20.4
2017-01-04T02:44:07.317Z,20.4
2017-01-04T02:46:10.342Z,20.4
2017-01-04T02:48:05.020Z,20.4
2017-01-04T02:50:04.943Z,20.4
2017-01-04T02:52:09.734Z,20.4
2017-01-04T02:54:08.087Z,20.4
2017-01-04T02:56:04.825Z,20.4
2017-01-04T02:58:05.582Z,20.4
2017-01-04T03:00:10.387Z,20.4
2017-01-04T03:02:05.224Z,20.4
2017-01-04T03:04:04.948Z,20.4
2017-01-04T03:06:04.693Z,20.4
2017-01-04T03:08:05.440Z,20.4
2017-01-04T03:10:05.216Z,20.4
2017-01-04T03:12:04.989Z,20.4
2017-01-04T03:14:04.856Z,20.4
2017-01-04T03:16:05.621Z,20.4
2017-01-04T03:18:08.236Z,20.4
2017-01-04T03:20:05.243Z,20.4
2017-01-04T03:22:05.113Z,20.4
2017-01-04T03:24:07.520Z,20.4
2017-01-04T03:26:05.701Z,20.4
2017-01-04T03:28:05.416Z,20.4
2017-01-04T03:30:05.079Z,20.4
2017-01-04T03:32:04.985Z,20.4
2017-01-04T03:34:08.097Z,20.4
2017-01-04T03:36:04.768Z,20.4
2017-01-04T03:38:05.902Z,20.4
2017-01-04T03:40:04.686Z,20.4
2017-01-04T03:42:08.289Z,20.4
2017-01-04T03:44:05.063Z,20.4
2017-01-04T03:46:07.976Z,20.4
2017-01-04T03:48:04.712Z,20.4
2017-01-04T03:50:05.778Z,20.4
2017-01-04T03:52:05.666Z,20.4
2017-01-04T03:54:04.775Z,20.4
2017-01-04T03:56:05.724Z,20.4
2017-01-04T03:58:05.039Z,20.4
2017-01-04T04:00:05.471Z,20.4
2017-01-04T04:02:05.092Z,20.4
2017-01-04T04:04:04.914Z,20.4
2017-01-04T04:06:05.081Z,20.4
2017-01-04T04:08:05.093Z,20.4
2017-01-04T04:10:04.813Z,20.4
2017-01-04T04:12:05.598Z,20.4
2017-01-04T04:14:05.053Z,20.4
2017-01-04T04:16:04.829Z,20.4
2017-01-04T04:18:07.389Z,20.4
2017-01-04T04:20:07.912Z,20.5
2017-01-04T04:22:07.485Z,20.5
2017-01-04T04:24:05.300Z,20.5
2017-01-04T04:26:05.643Z,20.5
2017-01-04T04:28:05.362Z,20.5
2017-01-04T04:30:05.096Z,20.5
2017-01-04T04:32:05.041Z,20.5
2017-01-04T04:34:04.789Z,20.5
2017-01-04T04:36:05.081Z,20.5
2017-01-04T04:38:07.633Z,20.5
2017-01-04T04:40:04.948Z,20.5
2017-01-04T04:42:04.623Z,20.5
2017-01-04T04:44:05.669Z,20.5
2017-01-04T04:46:05.445Z,20.5
2017-01-04T04:48:05.340Z,20.5
2017-01-04T04:50:07.675Z,20.5
2017-01-04T04:52:05.414Z,20.5
2017-01-04T04:54:05.222Z,20.5
2017-01-04T04:56:05.511Z,20.5
2017-01-04T04:58:07.880Z,20.5
2017-01-04T05:00:05.596Z,20.5
2017-01-04T05:02:05.521Z,20.5
2017-01-04T05:04:05.267Z,20.5
2017-01-04T05:06:10.281Z,20.5
2017-01-04T05:08:05.807Z,20.5
2017-01-04T05:10:05.684Z,20.5
2017-01-04T05:12:07.938Z,20.5
2017-01-04T05:14:04.700Z,20.5
2017-01-04T05:16:10.513Z,20.5
2017-01-04T05:18:05.424Z,20.5
2017-01-04T05:20:05.152Z,20.5
2017-01-04T05:22:05.133Z,20.5
2017-01-04T05:24:09.927Z,20.5
2017-01-04T05:26:10.467Z,20.5
2017-01-04T05:28:05.142Z,20.5
2017-01-04T05:30:05.432Z,20.5
2017-01-04T05:32:07.816Z,20.5
2017-01-04T05:34:05.534Z,20.5
2017-01-04T05:36:07.339Z,20.5
2017-01-04T05:38:05.278Z,20.5
2017-01-04T05:40:07.570Z,20.5
2017-01-04T05:42:05.255Z,20.5
2017-01-04T05:44:05.304Z,20.5
2017-01-04T05:46:10.081Z,20.6
2017-01-04T05:48:07.419Z,20.5
2017-01-04T05:50:05.522Z,20.5
2017-01-04T05:52:05.442Z,20.5
2017-01-04T05:54:07.236Z,20.6
2017-01-04T05:56:07.722Z,20.6
2017-01-04T05:58:05.767Z,20.6
2017-01-04T06:00:05.489Z,20.6
2017-01-04T06:02:07.656Z,20.6
2017-01-04T06:04:05.380Z,20.6
2017-01-04T06:06:05.098Z,20.6
2017-01-04T06:08:05.004Z,20.6
2017-01-04T06:10:04.764Z,20.6
2017-01-04T06:12:05.520Z,20.6
2017-01-04T06:14:07.414Z,20.6
2017-01-04T06:16:07.750Z,20.6
2017-01-04T06:18:07.280Z,20.6
2017-01-04T06:20:07.554Z,20.6
2017-01-04T06:22:05.282Z,20.6
2017-01-04T06:24:05.049Z,20.6
2017-01-04T06:26:15.041Z,20.6
2017-01-04T06:28:09.789Z,20.6
2017-01-04T06:30:05.591Z,20.6
2017-01-04T06:32:05.617Z,20.6
2017-01-04T06:34:05.359Z,20.6
2017-01-04T06:36:12.655Z,20.6
2017-01-04T06:38:05.445Z,20.6
2017-01-04T06:40:05.150Z,20.6
2017-01-04T06:42:04.859Z,20.6
2017-01-04T06:44:07.320Z,20.6
2017-01-04T06:46:05.050Z,20.6
2017-01-04T06:48:05.306Z,20.6
2017-01-04T06:50:05.118Z,20.6
2017-01-04T06:52:04.935Z,20.6
2017-01-04T06:54:04.652Z,20.6
2017-01-04T06:56:04.816Z,20.6
2017-01-04T06:58:05.545Z,20.6
2017-01-04T07:00:05.288Z,20.7
2017-01-04T07:02:05.358Z,20.7
2017-01-04T07:04:05.601Z,20.7
2017-01-04T07:06:07.847Z,20.7
2017-01-04T07:08:10.165Z,20.7
2017-01-04T07:10:04.890Z,20.7
2017-01-04T07:12:09.707Z,20.7
2017-01-04T07:14:05.752Z,20.6
2017-01-04T07:16:05.442Z,20.7
2017-01-04T07:18:05.734Z,20.7
2017-01-04T07:20:10.276Z,20.7
2017-01-04T07:22:04.986Z,20.6
2017-01-04T07:24:04.726Z,20.6
2017-01-04T07:26:05.597Z,20.6
2017-01-04T07:28:08.053Z,20.6
2017-01-04T07:30:05.479Z,20.6
2017-01-04T07:32:05.652Z,20.6
2017-01-04T07:34:05.700Z,20.6
2017-01-04T07:36:05.484Z,20.7
2017-01-04T07:38:05.780Z,20.7
2017-01-04T07:40:05.168Z,20.7
2017-01-04T07:42:04.868Z,20.7
2017-01-04T07:44:05.600Z,20.7
2017-01-04T07:46:04.862Z,20.7
2017-01-04T07:48:05.562Z,20.8
2017-01-04T07:50:05.486Z,20.8
2017-01-04T07:52:05.218Z,20.8
2017-01-04T07:54:04.935Z,20.8
2017-01-04T07:56:05.045Z,20.8
2017-01-04T07:58:04.831Z,20.8
2017-01-04T08:00:04.751Z,20.8
2017-01-04T08:02:05.790Z,20.9
2017-01-04T08:04:07.542Z,20.9
2017-01-04T08:06:11.682Z,20.9
2017-01-04T08:08:05.164Z,20.9
2017-01-04T08:10:05.045Z,20.9
2017-01-04T08:12:04.818Z,20.9
2017-01-04T08:14:05.793Z,20.9
2017-01-04T08:16:07.548Z,20.8
2017-01-04T08:18:12.357Z,20.8
2017-01-04T08:20:05.377Z,20.8
2017-01-04T08:22:04.843Z,20.8
2017-01-04T08:24:05.584Z,20.8
2017-01-04T08:26:05.178Z,20.8
2017-01-04T08:28:04.911Z,20.8
2017-01-04T08:30:09.733Z,20.8
2017-01-04T08:32:07.860Z,20.8
2017-01-04T08:34:05.598Z,20.8
2017-01-04T08:36:05.314Z,20.8
2017-01-04T08:38:05.167Z,20.8
2017-01-04T08:40:04.875Z,20.8
2017-01-04T08:42:05.346Z,20.8
2017-01-04T08:44:10.399Z,20.9
2017-01-04T08:46:05.123Z,20.8
2017-01-04T08:48:04.824Z,20.9
2017-01-04T08:50:05.694Z,20.9
2017-01-04T08:52:05.395Z,20.9
2017-01-04T08:54:05.424Z,20.9
2017-01-04T08:56:05.422Z,20.9
2017-01-04T08:58:05.122Z,20.9
2017-01-04T09:00:07.430Z,20.8
2017-01-04T09:02:05.392Z,20.9
2017-01-04T09:04:05.429Z,20.8
2017-01-04T09:06:05.173Z,20.8
2017-01-04T09:08:04.917Z,20.8
2017-01-04T09:10:07.234Z,20.8
2017-01-04T09:12:04.969Z,20.8
2017-01-04T09:14:07.658Z,20.8
2017-01-04T09:16:05.427Z,20.8
2017-01-04T09:18:05.382Z,20.8
2017-01-04T09:20:05.077Z,20.8
2017-01-04T09:22:04.838Z,20.8
2017-01-04T09:24:07.221Z,20.7
2017-01-04T09:26:05.314Z,20.7
2017-01-04T09:28:05.223Z,20.8
2017-01-04T09:30:07.567Z,20.7
2017-01-04T09:32:05.523Z,20.8
2017-01-04T09:34:05.233Z,20.8
2017-01-04T09:36:04.928Z,20.7
2017-01-04T09:38:07.573Z,20.8
2017-01-04T09:40:05.355Z,20.8
2017-01-04T09:42:13.738Z,20.8
2017-01-04T09:44:07.655Z,20.7
2017-01-04T09:46:05.374Z,20.7
2017-01-04T09:48:06.196Z,20.8
2017-01-04T09:50:05.562Z,20.7
2017-01-04T09:52:07.846Z,20.7
2017-01-04T09:54:07.098Z,20.7
2017-01-04T09:56:04.817Z,20.7
2017-01-04T09:58:06.066Z,20.7
2017-01-04T10:00:04.977Z,20.7
2017-01-04T10:02:07.257Z,20.7
2017-01-04T10:04:04.994Z,20.7
2017-01-04T10:06:05.398Z,20.7
2017-01-04T10:08:06.265Z,20.7
2017-01-04T10:10:12.658Z,20.7
2017-01-04T10:12:05.444Z,20.7
2017-01-04T10:14:05.361Z,20.7
2017-01-04T10:16:05.625Z,20.7
2017-01-04T10:18:05.576Z,20.7
2017-01-04T10:20:07.399Z,20.7
2017-01-04T10:22:05.256Z,20.7
2017-01-04T10:24:04.998Z,20.7
2017-01-04T10:26:05.016Z,20.7
2017-01-04T10:28:05.360Z,20.7
2017-01-04T10:30:07.625Z,20.7
2017-01-04T10:32:05.329Z,20.7
2017-01-04T10:34:05.069Z,20.7
2017-01-04T10:36:04.842Z,20.8
2017-01-04T10:38:13.171Z,20.8
2017-01-04T10:40:04.908Z,20.8
2017-01-04T10:42:12.288Z,20.8
2017-01-04T10:44:05.108Z,20.8
2017-01-04T10:46:04.945Z,20.8
2017-01-04T10:48:05.254Z,20.8
2017-01-04T10:50:05.113Z,20.8
2017-01-04T10:52:04.854Z,20.8
2017-01-04T10:54:07.952Z,20.8
2017-01-04T10:56:05.221Z,20.8
2017-01-04T10:58:07.477Z,20.9
2017-01-04T11:00:05.398Z,20.8
2017-01-04T11:02:05.498Z,20.9
2017-01-04T11:04:05.570Z,20.9
2017-01-04T11:06:07.849Z,20.9
2017-01-04T11:08:05.696Z,20.9
2017-01-04T11:10:07.991Z,20.9
2017-01-04T11:12:04.909Z,20.9
2017-01-04T11:14:04.950Z,20.9
2017-01-04T11:16:07.239Z,21
2017-01-04T11:18:05.455Z,20.9
2017-01-04T11:20:05.519Z,21
2017-01-04T11:22:07.726Z,21
2017-01-04T11:24:08.024Z,21
2017-01-04T11:26:04.933Z,20.9
2017-01-04T11:28:04.670Z,21
2017-01-04T11:30:07.161Z,21
2017-01-04T11:32:05.268Z,21
2017-01-04T11:34:05.103Z,21
2017-01-04T11:36:04.835Z,21
2017-01-04T11:38:05.694Z,21
2017-01-04T11:40:04.924Z,21
2017-01-04T11:42:09.698Z,21
2017-01-04T11:44:05.802Z,21.1
2017-01-04T11:46:05.473Z,21.1
2017-01-04T11:48:07.210Z,21.1
2017-01-04T11:50:05.326Z,21.1
2017-01-04T11:52:05.644Z,21.1
2017-01-04T11:54:10.451Z,21.2
2017-01-04T11:56:05.252Z,21.2
2017-01-04T11:58:05.202Z,21.2
2017-01-04T12:00:04.940Z,21.2
2017-01-04T12:02:05.230Z,21.2
2017-01-04T12:04:05.192Z,21.2
2017-01-04T12:06:05.002Z,21.2
2017-01-04T12:08:05.286Z,21.2
2017-01-04T12:10:05.026Z,21.2
2017-01-04T12:12:04.770Z,21.2
2017-01-04T12:14:05.657Z,21.2
2017-01-04T12:16:05.425Z,21.2
2017-01-04T12:18:05.596Z,21.2
2017-01-04T12:20:05.849Z,21.2
2017-01-04T12:22:05.883Z,21.2
2017-01-04T12:24:05.614Z,21.2
2017-01-04T12:26:05.643Z,21.2
2017-01-04T12:28:10.396Z,21.3
2017-01-04T12:30:05.217Z,21.3
2017-01-04T12:32:05.309Z,21.3
2017-01-04T12:34:05.552Z,21.3
2017-01-04T12:36:05.321Z,21.3
2017-01-04T12:38:05.612Z,21.4
2017-01-04T12:40:05.383Z,21.4
2017-01-04T12:42:05.148Z,21.4
2017-01-04T12:44:05.704Z,21.4
2017-01-04T12:46:05.003Z,21.4
2017-01-04T12:48:04.758Z,21.4
2017-01-04T12:50:05.885Z,21.4
2017-01-04T12:52:05.117Z,21.4
2017-01-04T12:54:12.711Z,21.4
2017-01-04T12:56:05.787Z,21.4
2017-01-04T12:58:05.492Z,21.4
2017-01-04T13:00:05.213Z,21.3
2017-01-04T13:02:05.292Z,21.4
2017-01-04T13:04:07.519Z,21.4
2017-01-04T13:06:05.248Z,21.3
2017-01-04T13:08:05.299Z,21.3
2017-01-04T13:10:07.840Z,21.3
2017-01-04T13:12:05.083Z,21.3
2017-01-04T13:14:07.457Z,21.3
2017-01-04T13:16:05.265Z,21.3
2017-01-04T13:18:05.186Z,21.3
2017-01-04T13:20:04.958Z,21.3
2017-01-04T13:22:04.730Z,21.3
2017-01-04T13:24:06.456Z,21.3
2017-01-04T13:26:08.055Z,21.3
2017-01-04T13:28:07.337Z,21.2
2017-01-04T13:30:05.043Z,21.2
2017-01-04T13:32:04.780Z,21.2
2017-01-04T13:34:05.484Z,21.2
2017-01-04T13:36:07.747Z,21.2
2017-01-04T13:38:05.762Z,21.3
2017-01-04T13:40:36.959Z,21.3
2017-01-04T13:42:07.860Z,21.3
2017-01-04T13:44:05.560Z,21.2
2017-01-04T13:46:05.286Z,21.2
2017-01-04T13:48:05.000Z,21.2
2017-01-04T13:50:07.308Z,21.2
2017-01-04T13:52:08.071Z,21.2
2017-01-04T13:54:04.751Z,21.2
2017-01-04T13:56:05.137Z,21.2
2017-01-04T13:58:05.202Z,21.2
2017-01-04T14:00:05.422Z,21.2
2017-01-04T14:02:05.551Z,21.2
2017-01-04T14:04:05.271Z,21.2
2017-01-04T14:06:04.975Z,21.2
2017-01-04T14:08:05.174Z,21.2
2017-01-04T14:10:04.928Z,21.2
2017-01-04T14:12:05.255Z,21.2
2017-01-04T14:14:05.359Z,21.2
2017-01-04T14:16:05.156Z,21.2
2017-01-04T14:18:05.117Z,21.2
2017-01-04T14:20:04.976Z,21.2
2017-01-04T14:22:09.751Z,21.2
2017-01-04T14:24:10.061Z,21.2
2017-01-04T14:26:07.317Z,21.2
2017-01-04T14:28:05.019Z,21.2
2017-01-04T14:30:04.875Z,21.2
2017-01-04T14:32:05.622Z,21.2
2017-01-04T14:34:05.303Z,21.2
2017-01-04T14:36:07.581Z,21.2
2017-01-04T14:38:05.008Z,21.2
2017-01-04T14:40:04.852Z,21.2
2017-01-04T14:42:07.654Z,21.2
2017-01-04T14:44:05.543Z,21.2
2017-01-04T14:46:05.844Z,21.2
2017-01-04T14:48:05.135Z,21.2
2017-01-04T14:50:05.007Z,21.2
2017-01-04T14:52:04.745Z,21.2
2017-01-04T14:54:04.989Z,21.2
2017-01-04T14:56:05.139Z,21.2
2017-01-04T14:58:10.154Z,21.2
2017-01-04T15:00:04.856Z,21.2
2017-01-04T15:02:08.243Z,21.2
2017-01-04T15:04:07.531Z,21.2
2017-01-04T15:06:07.841Z,21.2
2017-01-04T15:08:05.755Z,21.2
2017-01-04T15:10:07.965Z,21.2
2017-01-04T15:12:07.205Z,21.2
2017-01-04T15:14:08.493Z,21.3
2017-01-04T15:16:05.218Z,21.2
2017-01-04T15:18:07.540Z,21.3
2017-01-04T15:20:05.065Z,21.3
2017-01-04T15:22:04.794Z,21.3
2017-01-04T15:24:05.547Z,21.3
2017-01-04T15:26:05.343Z,21.3
2017-01-04T15:28:05.098Z,21.3
2017-01-04T15:30:05.347Z,21.3
2017-01-04T15:32:04.926Z,21.3
2017-01-04T15:34:04.770Z,21.3
2017-01-04T15:36:05.568Z,21.3
2017-01-04T15:38:05.536Z,21.3
2017-01-04T15:40:05.353Z,21.3
2017-01-04T15:42:05.077Z,21.3
2017-01-04T15:44:05.227Z,21.3
2017-01-04T15:46:04.948Z,21.3
2017-01-04T15:48:05.233Z,21.3
2017-01-04T15:50:07.738Z,21.3
2017-01-04T15:52:05.455Z,21.3
2017-01-04T15:54:04.692Z,21.4
2017-01-04T15:56:10.655Z,21.3
2017-01-04T15:58:07.906Z,21.4
2017-01-04T16:00:05.032Z,21.3
2017-01-04T16:02:05.660Z,21.3
2017-01-04T16:04:04.894Z,21.4
2017-01-04T16:06:04.707Z,21.4
2017-01-04T16:08:04.985Z,21.3
2017-01-04T16:10:04.720Z,21.3
2017-01-04T16:12:05.478Z,21.4
2017-01-04T16:14:07.233Z,21.3
2017-01-04T16:16:10.457Z,21.3
2017-01-04T16:18:05.087Z,21.3
2017-01-04T16:20:05.091Z,21.3
2017-01-04T16:22:05.656Z,21.4
2017-01-04T16:24:05.412Z,21.6
2017-01-04T16:26:10.475Z,21.7
2017-01-04T16:28:05.238Z,21.7
2017-01-04T16:30:04.952Z,21.7
2017-01-04T16:32:05.124Z,21.8
2017-01-04T16:34:04.820Z,21.9
2017-01-04T16:36:05.576Z,22
2017-01-04T16:38:08.147Z,22.2
2017-01-04T16:40:04.852Z,22.1
2017-01-04T16:42:05.149Z,22.1
2017-01-04T16:44:18.103Z,22.1
2017-01-04T16:46:05.002Z,22.1
2017-01-04T16:48:04.726Z,22.1
2017-01-04T16:50:05.787Z,22.1
2017-01-04T16:52:05.500Z,22.1
2017-01-04T16:54:05.394Z,22.2
2017-01-04T16:56:05.405Z,22.3
2017-01-04T16:58:04.924Z,22.3
2017-01-04T17:00:07.223Z,22.3
2017-01-04T17:02:08.213Z,22.3
2017-01-04T17:04:06.450Z,22.3
2017-01-04T17:06:12.997Z,22.4
2017-01-04T17:08:04.688Z,22.3
2017-01-04T17:10:08.335Z,22.3
2017-01-04T17:12:05.018Z,22.3
2017-01-04T17:14:05.109Z,22.2
2017-01-04T17:16:08.415Z,22.1
2017-01-04T17:18:05.311Z,22.1
2017-01-04T17:20:05.630Z,22.1
2017-01-04T17:22:05.358Z,22
2017-01-04T17:24:05.594Z,22
2017-01-04T17:26:08.006Z,21.9
2017-01-04T17:28:07.525Z,21.9
2017-01-04T17:30:05.265Z,21.9
2017-01-04T17:32:08.244Z,21.9
2017-01-04T17:34:07.469Z,21.9
2017-01-04T17:36:05.159Z,21.9
2017-01-04T17:38:07.379Z,21.8
2017-01-04T17:40:05.118Z,21.8
2017-01-04T17:42:04.833Z,21.9
2017-01-04T17:44:05.674Z,21.8
2017-01-04T17:46:06.475Z,21.8
2017-01-04T17:48:36.234Z,21.8
2017-01-04T17:50:10.046Z,21.8
2017-01-04T17:52:05.005Z,21.8
2017-01-04T17:54:04.723Z,21.8
2017-01-04T17:56:07.223Z,21.8
2017-01-04T17:58:04.988Z,21.8
2017-01-04T18:00:04.752Z,21.8
2017-01-04T18:02:05.833Z,21.8
2017-01-04T18:04:08.112Z,21.8
2017-01-04T18:06:04.821Z,21.8
2017-01-04T18:08:08.099Z,21.8
2017-01-04T18:10:05.065Z,21.7
2017-01-04T18:12:04.774Z,21.7
2017-01-04T18:14:07.898Z,21.7
2017-01-04T18:16:05.676Z,21.7
2017-01-04T18:18:04.620Z,21.7
2017-01-04T18:20:05.380Z,21.7
2017-01-04T18:22:05.293Z,21.7
2017-01-04T18:24:12.212Z,21.7
2017-01-04T18:26:05.772Z,21.7
2017-01-04T18:28:05.494Z,21.7
2017-01-04T18:30:05.527Z,21.7
2017-01-04T18:32:07.806Z,21.7
2017-01-04T18:34:10.136Z,21.7
2017-01-04T18:36:04.928Z,21.7
2017-01-04T18:38:04.884Z,21.7
2017-01-04T18:40:08.119Z,21.7
2017-01-04T18:42:04.844Z,21.7
2017-01-04T18:44:05.521Z,21.7
2017-01-04T18:46:13.153Z,21.7
2017-01-04T18:48:05.688Z,21.7
2017-01-04T18:50:05.733Z,21.7
2017-01-04T18:52:05.505Z,21.7
2017-01-04T18:54:05.217Z,21.7
2017-01-04T18:56:10.497Z,21.7
2017-01-04T18:58:05.187Z,21.7
2017-01-04T19:00:04.908Z,21.7
2017-01-04T19:02:05.615Z,21.7
2017-01-04T19:04:05.375Z,21.7
2017-01-04T19:06:05.320Z,21.7
2017-01-04T19:08:05.055Z,21.7
2017-01-04T19:10:09.852Z,21.7
2017-01-04T19:12:05.681Z,21.6
2017-01-04T19:14:08.266Z,21.6
2017-01-04T19:16:04.992Z,21.7
2017-01-04T19:18:05.674Z,21.7
2017-01-04T19:20:05.378Z,21.7
2017-01-04T19:22:04.662Z,21.6
2017-01-04T19:24:05.379Z,21.6
2017-01-04T19:26:05.234Z,21.6
2017-01-04T19:28:05.495Z,21.6
2017-01-04T19:30:05.251Z,21.6
2017-01-04T19:32:05.322Z,21.5
2017-01-04T19:34:05.743Z,21.6
2017-01-04T19:36:07.994Z,21.6
2017-01-04T19:38:05.087Z,21.5
2017-01-04T19:40:04.823Z,21.6
2017-01-04T19:42:05.078Z,21.5
2017-01-04T19:44:12.410Z,21.5
2017-01-04T19:46:05.323Z,21.5
2017-01-04T19:48:05.020Z,21.5
2017-01-04T19:50:05.366Z,21.5
2017-01-04T19:52:05.152Z,21.5
2017-01-04T19:54:04.893Z,21.5
2017-01-04T19:56:05.966Z,21.5
2017-01-04T19:58:04.671Z,21.5
2017-01-04T20:00:05.436Z,21.5
2017-01-04T20:02:05.190Z,21.5
2017-01-04T20:04:04.850Z,21.5
2017-01-04T20:06:05.635Z,21.5
2017-01-04T20:08:05.710Z,21.4
2017-01-04T20:10:07.732Z,21.4
2017-01-04T20:12:05.443Z,21.4
2017-01-04T20:14:05.357Z,21.4
2017-01-04T20:16:10.182Z,21.4
2017-01-04T20:18:05.128Z,21.4
2017-01-04T20:20:07.816Z,21.4
2017-01-04T20:22:05.593Z,21.4
2017-01-04T20:24:05.590Z,21.4
2017-01-04T20:26:05.863Z,21.4
2017-01-04T20:28:05.110Z,21.4
2017-01-04T20:30:07.402Z,21.4
2017-01-04T20:32:04.728Z,21.4
2017-01-04T20:34:05.460Z,21.4
2017-01-04T20:36:04.735Z,21.4
2017-01-04T20:38:04.910Z,21.4
2017-01-04T20:40:05.393Z,21.4
2017-01-04T20:42:07.793Z,21.4
2017-01-04T20:44:05.389Z,21.4
2017-01-04T20:46:05.607Z,21.4
2017-01-04T20:48:07.866Z,21.4
2017-01-04T20:50:05.922Z,21.3
2017-01-04T20:52:04.833Z,21.3
2017-01-04T20:54:05.147Z,21.3
2017-01-04T20:56:05.440Z,21.3
2017-01-04T20:58:05.219Z,21.3
2017-01-04T21:00:05.027Z,21.3
2017-01-04T21:02:05.113Z,21.3
2017-01-04T21:04:07.643Z,21.3
2017-01-04T21:06:05.445Z,21.3
2017-01-04T21:08:12.909Z,21.3
2017-01-04T21:10:04.982Z,21.2
2017-01-04T21:12:09.772Z,21.3
2017-01-04T21:14:05.785Z,21.2
2017-01-04T21:16:05.652Z,21.2
2017-01-04T21:18:05.577Z,21.2
2017-01-04T21:20:10.879Z,21.2
2017-01-04T21:22:05.593Z,21.2
2017-01-04T21:24:08.081Z,21.2
2017-01-04T21:26:05.172Z,21.2
2017-01-04T21:28:04.909Z,21.2
2017-01-04T21:30:04.715Z,21.2
2017-01-04T21:32:18.215Z,21.2
2017-01-04T21:34:05.181Z,21.2
2017-01-04T21:36:04.650Z,21.2
2017-01-04T21:38:12.497Z,21.2
2017-01-04T21:40:05.440Z,21.2
2017-01-04T21:42:05.450Z,21.2
2017-01-04T21:44:05.517Z,21.2
2017-01-04T21:46:05.258Z,21.2
2017-01-04T21:48:05.796Z,21.2
2017-01-04T21:50:05.542Z,21.2
2017-01-04T21:52:04.802Z,21.2
2017-01-04T21:54:05.685Z,21.2
2017-01-04T21:56:08.130Z,21.1
2017-01-04T21:58:07.380Z,21.1
2017-01-04T22:00:05.092Z,21.1
2017-01-04T22:02:04.976Z,21.1
2017-01-04T22:04:04.685Z,21.1
2017-01-04T22:06:07.959Z,21.1
2017-01-04T22:08:07.568Z,21.1
2017-01-04T22:10:05.304Z,21.1
2017-01-04T22:12:05.573Z,21.1
2017-01-04T22:14:05.306Z,21.1
2017-01-04T22:16:05.232Z,21.1
2017-01-04T22:18:07.913Z,21
2017-01-04T22:20:04.643Z,21.1
2017-01-04T22:22:05.358Z,21.1
2017-01-04T22:24:05.307Z,21.1
2017-01-04T22:26:05.237Z,21.1
2017-01-04T22:28:04.971Z,21
2017-01-04T22:30:04.721Z,21
2017-01-04T22:32:10.370Z,21
2017-01-04T22:34:10.129Z,21.1
2017-01-04T22:36:04.881Z,21
2017-01-04T22:38:05.282Z,21.1
2017-01-04T22:40:05.047Z,21
2017-01-04T22:42:04.772Z,21.1
2017-01-04T22:44:05.390Z,21.1
2017-01-04T22:46:10.806Z,21.1
2017-01-04T22:48:05.571Z,21.1
2017-01-04T22:50:04.869Z,21.1
2017-01-04T22:52:05.563Z,21.1
2017-01-04T22:54:05.247Z,21.1
2017-01-04T22:56:05.063Z,21.1
2017-01-04T22:58:04.795Z,21.1
2017-01-04T23:00:04.942Z,21.1
2017-01-04T23:02:05.344Z,21.1
2017-01-04T23:04:05.176Z,21.1
2017-01-04T23:06:04.933Z,21.1
2017-01-04T23:08:05.312Z,21.1
2017-01-04T23:10:05.050Z,21.1
2017-01-04T23:12:04.771Z,21.1
2017-01-04T23:14:10.826Z,21.1
2017-01-04T23:16:10.671Z,21.2
2017-01-04T23:18:04.852Z,21.2
2017-01-04T23:20:08.505Z,21.1
2017-01-04T23:22:05.353Z,21.1
2017-01-04T23:24:08.143Z,21.2
2017-01-04T23:26:04.973Z,21.2
2017-01-04T23:28:04.886Z,21.2
2017-01-04T23:30:10.728Z,21.2
2017-01-04T23:32:05.158Z,21.2
2017-01-04T23:34:05.080Z,21.2
2017-01-04T23:36:04.881Z,21.2
2017-01-04T23:38:05.629Z,21.2
2017-01-04T23:40:07.163Z,21.2
2017-01-04T23:42:07.515Z,21.2
2017-01-04T23:44:08.090Z,21.2
2017-01-04T23:48:05.310Z,21.2
2017-01-04T23:50:05.316Z,21.2
2017-01-04T23:52:05.029Z,21.2
2017-01-04T23:54:05.489Z,21.2
2017-01-04T23:56:07.884Z,21.3
2017-01-04T23:58:04.881Z,21.2
